Sitc Xiamen — 3ELU — position and weather

sailwx.info

Track history (hours):
 
Tides and Currents Weather Stations Pressure Air Temp Water Temp Dewpoint Dewpoint Depression Visibility Wind Speed Wind Dir Waves Ship Positions

Sitc Xiamen

Last reported at 2016-Aug-26 16:18 UTC. Time now 2016-Aug-28 19:00 UTC.
Position N 21°39' E 119°52'.

Length 145 m; draft 8.7 m.

Type: Cargo ship. MMSI: 355090000.

Date/timePositionNaut miles runAvg speedWind from/ knotsBaromVisibWave heightAir tempDewpointWater temp
2016-Aug-26 16:18N 21°39' E 119°52'4915.5
2016-Aug-26 13:09N 22°28' E 119°53'45014.7
2016-Aug-25 06:33N 29°38' E 122°19'2211.0
2016-Aug-25 04:33N 29°55' E 122°03'11 2.8
2016-Aug-25 00:28N 29°57' E 121°50'0 0.0
2016-Aug-24 21:10N 29°57' E 121°50'1 0.9
2016-Aug-24 20:33N 29°57' E 121°51'1211.7
2016-Aug-24 19:33N 29°55' E 122°04'1212.5
2016-Aug-24 18:33N 29°48' E 122°15'6 0.8
2016-Aug-24 11:12N 29°47' E 122°22'3 4.3
2016-Aug-24 10:32N 29°47' E 122°25'1614.1
2016-Aug-24 09:24N 29°59' E 122°36'1214.6
2016-Aug-24 08:33N 30°12' E 122°37'1513.7
2016-Aug-24 07:29N 30°26' E 122°38'1413.8
2016-Aug-24 06:27N 30°41' E 122°39'5710.9
2016-Aug-24 01:13N 31°18' E 121°48'811.9
2016-Aug-24 00:33N 31°20' E 121°39'0 0.1
2016-Aug-23 23:14N 31°20' E 121°39'0 0.0
2016-Aug-23 19:19N 31°20' E 121°39'3 4.2
2016-Aug-23 18:33N 31°20' E 121°43'  
2016-Aug-19 11:23N 34°17' E 138°16'7515.4
2016-Aug-19 06:28N 34°59' E 139°32'1415.5
2016-Aug-19 05:33N 35°09' E 139°45'1312.7
2016-Aug-19 04:33N 35°21' E 139°42'3 3.1
2016-Aug-19 03:31N 35°24' E 139°41'0 0.0
2016-Aug-19 02:31N 35°24' E 139°41'0 0.0
2016-Aug-19 01:31N 35°24' E 139°41'0 0.0
2016-Aug-19 00:31N 35°24' E 139°41'0 0.0
2016-Aug-18 23:31N 35°24' E 139°41'0 0.0
2016-Aug-18 22:31N 35°24' E 139°41'6 6.3
2016-Aug-18 21:33N 35°27' E 139°47'10 9.8
2016-Aug-18 20:33N 35°37' E 139°46'0 0.2
2016-Aug-18 19:33N 35°37' E 139°46'0 0.0
2016-Aug-18 18:33N 35°37' E 139°46'0 0.0
2016-Aug-18 17:33N 35°37' E 139°46'0 0.0
2016-Aug-18 16:33N 35°37' E 139°46'0 0.3
2016-Aug-18 15:33N 35°36' E 139°46'10 9.9
2016-Aug-18 14:33N 35°27' E 139°49'1211.9
2016-Aug-18 13:33N 35°15' E 139°47'  
Track history (hours):
 
Tides and Currents Weather Stations Pressure Air Temp Water Temp Dewpoint Dewpoint Depression Visibility Wind Speed Wind Dir Waves Ship Positions

Sitc Xiamen

Last reported at 2016-Aug-26 16:18 UTC. Time now 2016-Aug-28 19:00 UTC.
Position N 21°39' E 119°52'.

Length 145 m; draft 8.7 m.

Type: Cargo ship. MMSI: 355090000.

Date/timePositionNaut miles runAvg speedWind from/ knotsBaromVisibWave heightAir tempDewpointWater temp
2016-Aug-26 16:18N 21°39' E 119°52'4915.5
2016-Aug-26 13:09N 22°28' E 119°53'45014.7
2016-Aug-25 06:33N 29°38' E 122°19'2211.0
2016-Aug-25 04:33N 29°55' E 122°03'11 2.8
2016-Aug-25 00:28N 29°57' E 121°50'0 0.0
2016-Aug-24 21:10N 29°57' E 121°50'1 0.9
2016-Aug-24 20:33N 29°57' E 121°51'1211.7
2016-Aug-24 19:33N 29°55' E 122°04'1212.5
2016-Aug-24 18:33N 29°48' E 122°15'6 0.8
2016-Aug-24 11:12N 29°47' E 122°22'3 4.3
2016-Aug-24 10:32N 29°47' E 122°25'1614.1
2016-Aug-24 09:24N 29°59' E 122°36'1214.6
2016-Aug-24 08:33N 30°12' E 122°37'1513.7
2016-Aug-24 07:29N 30°26' E 122°38'1413.8
2016-Aug-24 06:27N 30°41' E 122°39'5710.9
2016-Aug-24 01:13N 31°18' E 121°48'811.9
2016-Aug-24 00:33N 31°20' E 121°39'0 0.1
2016-Aug-23 23:14N 31°20' E 121°39'0 0.0
2016-Aug-23 19:19N 31°20' E 121°39'3 4.2
2016-Aug-23 18:33N 31°20' E 121°43'  
2016-Aug-19 11:23N 34°17' E 138°16'7515.4
2016-Aug-19 06:28N 34°59' E 139°32'1415.5
2016-Aug-19 05:33N 35°09' E 139°45'1312.7
2016-Aug-19 04:33N 35°21' E 139°42'3 3.1
2016-Aug-19 03:31N 35°24' E 139°41'0 0.0
2016-Aug-19 02:31N 35°24' E 139°41'0 0.0
2016-Aug-19 01:31N 35°24' E 139°41'0 0.0
2016-Aug-19 00:31N 35°24' E 139°41'0 0.0
2016-Aug-18 23:31N 35°24' E 139°41'0 0.0
2016-Aug-18 22:31N 35°24' E 139°41'6 6.3
2016-Aug-18 21:33N 35°27' E 139°47'10 9.8
2016-Aug-18 20:33N 35°37' E 139°46'0 0.2
2016-Aug-18 19:33N 35°37' E 139°46'0 0.0
2016-Aug-18 18:33N 35°37' E 139°46'0 0.0
2016-Aug-18 17:33N 35°37' E 139°46'0 0.0
2016-Aug-18 16:33N 35°37' E 139°46'0 0.3
2016-Aug-18 15:33N 35°36' E 139°46'10 9.9
2016-Aug-18 14:33N 35°27' E 139°49'1211.9
2016-Aug-18 13:33N 35°15' E 139°47'  

Dump ship's entire track history